Time;durP1;ratioP1;P1;durP2;ratioP2;P2;SDS_P1;SDS_P2;PMS_P1;PMS_P2;Temp;Humidity;BMP_temperature;BMP_pressure;BME280_temperature;BME280_humidity;BME280_pressure;Samples;Min_cycle;Max_cycle;Signal;HPM_P1;HPM_P2
2024/01/14 00:01:46;;;;;;;11.70;5.80;;;0.10;99.90;;;;;;5093243;27;20302;-69
2024/01/14 00:04:12;;;;;;;15.53;5.10;;;0.10;99.90;;;;;;5076052;28;20514;-70
2024/01/14 00:06:38;;;;;;;12.40;5.53;;;0.10;99.90;;;;;;5078171;28;20689;-69
2024/01/14 00:09:04;;;;;;;11.90;6.13;;;0.10;99.90;;;;;;5074359;28;20235;-69
2024/01/14 00:11:29;;;;;;;15.93;6.13;;;0.10;99.90;;;;;;5074258;28;20230;-70
2024/01/14 00:13:55;;;;;;;9.20;4.87;;;0.10;99.90;;;;;;5080702;28;20264;-69
2024/01/14 00:16:21;;;;;;;15.13;5.07;;;0.10;99.90;;;;;;5085227;28;20638;-70
2024/01/14 00:18:47;;;;;;;12.23;4.97;;;0.20;99.90;;;;;;5081078;28;20240;-69
2024/01/14 00:21:13;;;;;;;14.50;5.57;;;0.10;99.90;;;;;;5085363;28;20458;-70
2024/01/14 00:23:39;;;;;;;12.30;5.40;;;0.10;99.90;;;;;;5086228;28;20517;-70
2024/01/14 00:26:04;;;;;;;9.93;4.47;;;0.10;99.90;;;;;;5076753;28;20219;-71
2024/01/14 00:28:30;;;;;;;12.07;4.90;;;0.10;99.90;;;;;;5063757;28;20207;-69
2024/01/14 00:30:56;;;;;;;11.83;5.77;;;0.10;99.90;;;;;;5078647;28;20251;-69
2024/01/14 00:33:21;;;;;;;14.50;5.20;;;0.10;99.90;;;;;;5074312;28;20729;-69
2024/01/14 00:35:47;;;;;;;13.20;5.03;;;0.10;99.90;;;;;;5077688;28;20689;-70
2024/01/14 00:38:15;;;;;;;16.40;5.70;;;0.10;99.90;;;;;;5073497;28;20211;-71
2024/01/14 00:40:40;;;;;;;10.97;4.40;;;0.00;99.90;;;;;;5075431;28;20457;-69
2024/01/14 00:43:06;;;;;;;13.63;5.00;;;-0.10;99.90;;;;;;5080130;28;20510;-70
2024/01/14 00:45:32;;;;;;;10.37;5.53;;;-0.10;99.90;;;;;;5077794;28;20227;-70
2024/01/14 00:47:57;;;;;;;11.90;5.20;;;-0.10;99.90;;;;;;5075415;28;20630;-70
2024/01/14 00:50:23;;;;;;;11.60;5.23;;;0.00;99.90;;;;;;5079188;28;20272;-69
2024/01/14 00:52:49;;;;;;;11.87;5.27;;;-0.10;99.90;;;;;;5080751;28;20258;-70
2024/01/14 00:55:14;;;;;;;11.80;5.00;;;0.00;99.90;;;;;;5080388;28;20302;-69
2024/01/14 00:57:40;;;;;;;8.80;4.50;;;0.00;99.90;;;;;;5075440;28;20215;-69
2024/01/14 01:00:09;;;;;;;8.83;4.40;;;0.00;99.90;;;;;;5075133;28;20211;-69
2024/01/14 01:02:35;;;;;;;12.70;6.10;;;0.00;99.90;;;;;;5081256;28;20331;-69
2024/01/14 01:05:02;;;;;;;11.20;4.57;;;0.00;99.90;;;;;;5074723;28;20490;-70
2024/01/14 01:07:28;;;;;;;14.40;6.23;;;0.00;99.90;;;;;;5087224;27;20461;-70
2024/01/14 01:09:54;;;;;;;11.70;5.30;;;0.00;99.90;;;;;;5096811;28;20555;-69
2024/01/14 01:12:19;;;;;;;9.50;4.40;;;0.00;99.90;;;;;;5077089;28;20219;-69
2024/01/14 01:14:47;;;;;;;11.57;4.27;;;0.00;99.90;;;;;;5081820;28;20215;-69
2024/01/14 01:17:13;;;;;;;10.00;4.70;;;0.00;99.90;;;;;;5077146;28;20215;-69
2024/01/14 01:19:38;;;;;;;13.47;5.77;;;0.00;99.90;;;;;;5088159;28;20487;-69
2024/01/14 01:22:04;;;;;;;8.10;4.23;;;0.00;99.90;;;;;;5072131;28;20216;-70
2024/01/14 01:24:30;;;;;;;15.70;5.03;;;0.00;99.90;;;;;;5089456;28;20317;-70
2024/01/14 01:26:55;;;;;;;11.33;4.87;;;0.00;99.90;;;;;;5062965;28;20215;-69
2024/01/14 01:29:21;;;;;;;11.90;4.87;;;0.00;99.90;;;;;;5092434;28;20258;-70
2024/01/14 01:31:46;;;;;;;11.50;4.63;;;0.00;99.90;;;;;;5073833;28;20315;-70
2024/01/14 01:34:12;;;;;;;12.00;5.03;;;-0.10;99.90;;;;;;5071616;28;20279;-70
2024/01/14 01:36:38;;;;;;;12.10;5.27;;;-0.10;99.90;;;;;;5083854;28;20889;-69
2024/01/14 01:39:03;;;;;;;16.77;6.90;;;0.00;99.90;;;;;;5076766;28;20223;-69
2024/01/14 01:41:29;;;;;;;11.00;4.70;;;0.00;99.90;;;;;;5068417;28;20232;-69
2024/01/14 01:43:55;;;;;;;8.93;4.67;;;-0.10;99.90;;;;;;5088629;28;20211;-70
2024/01/14 01:46:20;;;;;;;8.07;4.67;;;-0.10;99.90;;;;;;5079513;27;20607;-69
2024/01/14 01:48:47;;;;;;;13.10;4.73;;;-0.10;99.90;;;;;;5076985;28;20210;-70
2024/01/14 01:51:13;;;;;;;16.73;5.33;;;-0.10;99.90;;;;;;5075580;28;20211;-68
2024/01/14 01:53:40;;;;;;;11.77;5.00;;;-0.10;99.90;;;;;;5081103;28;20506;-70
2024/01/14 01:56:06;;;;;;;10.00;5.30;;;0.00;99.90;;;;;;5077821;28;20494;-70
2024/01/14 01:58:31;;;;;;;15.67;5.50;;;0.00;99.90;;;;;;5077313;28;20468;-69
2024/01/14 02:00:57;;;;;;;11.73;5.20;;;-0.10;99.90;;;;;;5069410;28;20477;-70
2024/01/14 02:03:24;;;;;;;9.00;4.70;;;-0.10;99.90;;;;;;5075649;28;20211;-69
2024/01/14 02:05:52;;;;;;;11.80;5.30;;;-0.10;99.90;;;;;;5078190;28;20226;-70
2024/01/14 02:08:18;;;;;;;7.20;3.80;;;0.00;99.90;;;;;;5078910;28;20446;-70
2024/01/14 02:10:43;;;;;;;11.43;5.67;;;0.00;99.90;;;;;;5081579;28;20521;-70
2024/01/14 02:13:09;;;;;;;8.60;4.57;;;-0.10;99.90;;;;;;5081531;28;20227;-69
2024/01/14 02:15:35;;;;;;;13.53;5.50;;;-0.10;99.90;;;;;;5069726;28;20224;-68
2024/01/14 02:18:00;;;;;;;13.30;5.03;;;-0.10;99.90;;;;;;5077245;28;20211;-70
2024/01/14 02:20:26;;;;;;;13.20;4.90;;;0.00;99.90;;;;;;5084089;27;20223;-70
2024/01/14 02:22:53;;;;;;;21.20;6.70;;;-0.10;99.90;;;;;;5077032;28;20246;-69
2024/01/14 02:25:19;;;;;;;11.47;4.80;;;-0.20;99.90;;;;;;5083684;28;20227;-70
2024/01/14 02:27:45;;;;;;;12.43;4.90;;;-0.20;99.90;;;;;;5086536;28;20453;-70
2024/01/14 02:30:11;;;;;;;11.90;5.00;;;-0.20;99.90;;;;;;5077708;28;20480;-70
2024/01/14 02:32:38;;;;;;;9.93;4.37;;;-0.20;99.90;;;;;;5083526;28;20222;-70
2024/01/14 02:35:05;;;;;;;12.53;4.90;;;-0.20;99.90;;;;;;5078906;28;20578;-70
2024/01/14 02:37:32;;;;;;;12.60;4.80;;;-0.20;99.90;;;;;;5079359;28;20515;-69
2024/01/14 02:39:57;;;;;;;16.80;6.07;;;-0.20;99.90;;;;;;5081411;28;20472;-68
2024/01/14 02:42:23;;;;;;;11.83;5.10;;;-0.20;99.90;;;;;;5082095;28;20461;-69
2024/01/14 02:44:49;;;;;;;7.93;4.03;;;-0.20;99.90;;;;;;5099391;27;20219;-70
2024/01/14 02:47:14;;;;;;;14.70;4.47;;;-0.20;99.90;;;;;;5075887;28;20220;-69
2024/01/14 02:49:40;;;;;;;10.93;3.77;;;-0.20;99.90;;;;;;5079684;28;20619;-71
2024/01/14 02:52:05;;;;;;;11.80;5.23;;;-0.20;99.90;;;;;;5079991;28;20244;-69
2024/01/14 02:54:31;;;;;;;12.30;5.50;;;-0.20;99.90;;;;;;5081613;28;20361;-70
2024/01/14 02:56:57;;;;;;;14.40;5.83;;;-0.20;99.90;;;;;;5061975;28;20239;-69
2024/01/14 02:59:22;;;;;;;18.57;5.30;;;-0.20;99.90;;;;;;5083005;28;20225;-68
2024/01/14 03:01:48;;;;;;;8.57;4.27;;;-0.20;99.90;;;;;;5067412;28;20368;-70
2024/01/14 03:04:14;;;;;;;14.40;6.10;;;-0.20;99.90;;;;;;5080130;28;20215;-70
2024/01/14 03:06:40;;;;;;;10.47;4.30;;;-0.20;99.90;;;;;;5088112;28;20211;-69
2024/01/14 03:09:06;;;;;;;14.40;5.27;;;-0.20;99.90;;;;;;5077197;27;20277;-69
2024/01/14 03:11:33;;;;;;;14.07;5.00;;;-0.20;99.90;;;;;;5082550;28;20234;-68
2024/01/14 03:13:59;;;;;;;14.70;4.77;;;-0.20;99.90;;;;;;5081315;28;20458;-70
2024/01/14 03:16:24;;;;;;;16.00;3.87;;;-0.30;99.90;;;;;;5079583;28;20498;-70
2024/01/14 03:18:50;;;;;;;8.77;3.90;;;-0.30;99.90;;;;;;5076636;28;20208;-69
2024/01/14 03:21:19;;;;;;;11.40;4.83;;;-0.20;99.90;;;;;;5085619;28;20707;-70
2024/01/14 03:23:45;;;;;;;10.83;5.00;;;-0.30;99.90;;;;;;5068061;28;20705;-69
2024/01/14 03:26:11;;;;;;;13.90;5.03;;;-0.30;99.90;;;;;;5079129;28;21036;-69
2024/01/14 03:28:37;;;;;;;16.40;5.33;;;-0.30;99.90;;;;;;5076184;28;20454;-69
2024/01/14 03:31:03;;;;;;;6.33;3.67;;;-0.30;99.90;;;;;;5082094;27;20227;-69
2024/01/14 03:33:28;;;;;;;9.60;4.90;;;-0.20;99.90;;;;;;5078674;28;20220;-69
2024/01/14 03:35:54;;;;;;;13.43;4.80;;;-0.20;99.90;;;;;;5076807;27;20596;-69
2024/01/14 03:38:20;;;;;;;11.43;5.80;;;-0.20;99.90;;;;;;5088540;28;20220;-70
2024/01/14 03:40:46;;;;;;;14.10;4.77;;;-0.20;99.90;;;;;;5082124;28;20216;-70
2024/01/14 03:43:12;;;;;;;9.63;4.20;;;-0.20;99.90;;;;;;5074056;28;20242;-70
2024/01/14 03:45:38;;;;;;;14.73;5.30;;;-0.20;99.90;;;;;;5077001;28;20211;-68
2024/01/14 03:48:04;;;;;;;10.77;5.30;;;-0.20;99.90;;;;;;5075212;28;20453;-69
2024/01/14 03:50:29;;;;;;;17.10;5.33;;;-0.20;99.90;;;;;;5086414;28;20235;-69
2024/01/14 03:52:55;;;;;;;10.43;4.30;;;-0.20;99.90;;;;;;5080464;28;20461;-69
2024/01/14 03:55:21;;;;;;;15.87;5.60;;;-0.20;99.90;;;;;;5072105;28;20268;-69
2024/01/14 03:57:46;;;;;;;9.03;3.83;;;-0.20;99.90;;;;;;5081803;28;20211;-68
2024/01/14 04:00:13;;;;;;;7.70;3.97;;;-0.20;99.90;;;;;;5074786;28;20207;-68
2024/01/14 04:02:39;;;;;;;9.30;4.60;;;-0.20;99.90;;;;;;5084702;28;20225;-69
2024/01/14 04:05:05;;;;;;;9.67;5.00;;;-0.20;99.90;;;;;;5077059;28;20602;-69
2024/01/14 04:07:31;;;;;;;10.63;6.13;;;-0.20;99.90;;;;;;5084565;28;20464;-70
2024/01/14 04:09:57;;;;;;;16.13;4.83;;;-0.20;99.90;;;;;;5099175;27;20469;-68
2024/01/14 04:12:27;;;;;;;13.53;5.17;;;-0.10;99.90;;;;;;5078683;28;20219;-69
2024/01/14 04:14:53;;;;;;;6.80;4.10;;;-0.10;99.90;;;;;;5081991;28;20456;-69
2024/01/14 04:17:18;;;;;;;9.97;5.03;;;-0.20;99.90;;;;;;5078657;28;20963;-70
2024/01/14 04:19:44;;;;;;;10.83;4.57;;;-0.20;99.90;;;;;;5079538;28;20226;-70
2024/01/14 04:22:10;;;;;;;13.60;6.57;;;-0.20;99.90;;;;;;5077530;28;20265;-69
2024/01/14 04:24:35;;;;;;;13.07;4.23;;;-0.20;99.90;;;;;;5080296;28;20291;-69
2024/01/14 04:27:01;;;;;;;8.17;4.27;;;-0.20;99.90;;;;;;5079876;28;20215;-69
2024/01/14 04:29:27;;;;;;;12.03;4.63;;;-0.10;99.90;;;;;;5079978;28;20227;-69
2024/01/14 04:31:52;;;;;;;10.80;4.50;;;-0.10;99.90;;;;;;5068131;28;20215;-70
2024/01/14 04:34:18;;;;;;;8.17;3.80;;;-0.20;99.90;;;;;;5062496;28;20211;-68
2024/01/14 04:36:43;;;;;;;10.63;4.50;;;-0.20;99.90;;;;;;5070252;28;20616;-69
2024/01/14 04:39:10;;;;;;;7.97;4.37;;;-0.20;99.90;;;;;;5061502;28;20230;-70
2024/01/14 04:41:36;;;;;;;9.53;4.17;;;-0.30;99.90;;;;;;5064044;28;20230;-70
2024/01/14 04:44:02;;;;;;;12.33;5.60;;;-0.20;99.90;;;;;;5082176;28;20457;-70
2024/01/14 04:46:27;;;;;;;10.13;4.60;;;-0.20;99.90;;;;;;5080969;28;20218;-69
2024/01/14 04:48:53;;;;;;;12.80;5.97;;;-0.20;99.90;;;;;;5074729;28;20453;-69
2024/01/14 04:51:19;;;;;;;12.47;5.63;;;-0.20;99.90;;;;;;5057474;28;20301;-69
2024/01/14 04:53:44;;;;;;;14.27;5.30;;;-0.30;99.90;;;;;;5083974;28;20343;-68
2024/01/14 04:56:10;;;;;;;16.33;5.20;;;-0.30;99.90;;;;;;5078511;28;20223;-69
2024/01/14 04:58:36;;;;;;;10.90;5.60;;;-0.20;99.90;;;;;;5082848;28;20219;-69
2024/01/14 05:01:02;;;;;;;6.77;3.60;;;-0.30;99.90;;;;;;5082350;28;20215;-70
2024/01/14 05:03:28;;;;;;;6.90;4.30;;;-0.40;99.90;;;;;;5079420;28;20457;-69
2024/01/14 05:05:53;;;;;;;9.13;4.33;;;-0.40;99.90;;;;;;5077839;28;20483;-69
2024/01/14 05:08:19;;;;;;;10.07;4.23;;;-0.40;99.90;;;;;;5077328;28;20700;-70
2024/01/14 05:10:45;;;;;;;9.20;4.10;;;-0.30;99.90;;;;;;5079733;28;20235;-69
2024/01/14 05:13:11;;;;;;;15.40;4.37;;;-0.40;99.90;;;;;;5076942;28;20230;-69
2024/01/14 05:15:38;;;;;;;13.63;4.57;;;-0.40;99.90;;;;;;5080694;28;20257;-70
2024/01/14 05:18:04;;;;;;;8.77;3.97;;;-0.40;99.90;;;;;;5079350;28;20460;-69
2024/01/14 05:20:30;;;;;;;7.13;3.93;;;-0.40;99.90;;;;;;5077593;28;20540;-70
2024/01/14 05:22:55;;;;;;;6.37;3.57;;;-0.50;99.90;;;;;;5082134;28;20532;-69
2024/01/14 05:25:21;;;;;;;13.20;4.10;;;-0.50;99.90;;;;;;5079491;28;20211;-70
2024/01/14 05:27:47;;;;;;;11.90;4.30;;;-0.50;99.90;;;;;;5086620;28;20234;-70
2024/01/14 05:30:13;;;;;;;5.73;3.73;;;-0.50;99.90;;;;;;5079886;28;20219;-70
2024/01/14 05:32:39;;;;;;;12.07;4.77;;;-0.50;99.90;;;;;;5081533;28;20255;-69
2024/01/14 05:35:05;;;;;;;7.27;3.60;;;-0.40;99.90;;;;;;5080679;28;20526;-70
2024/01/14 05:37:31;;;;;;;9.80;5.10;;;-0.50;99.90;;;;;;5081287;28;20464;-69
2024/01/14 05:39:57;;;;;;;7.07;4.07;;;-0.50;99.90;;;;;;5082855;28;20478;-69
2024/01/14 05:42:23;;;;;;;12.90;4.00;;;-0.50;99.90;;;;;;5074294;28;20584;-70
2024/01/14 05:44:48;;;;;;;8.03;3.93;;;-0.50;99.90;;;;;;5082579;28;20444;-70
2024/01/14 05:47:14;;;;;;;6.63;3.20;;;-0.50;99.90;;;;;;5078819;28;20214;-70
2024/01/14 05:49:40;;;;;;;10.80;4.10;;;-0.50;99.90;;;;;;5082076;28;20317;-68
2024/01/14 05:52:05;;;;;;;12.40;4.90;;;-0.40;99.90;;;;;;5077636;28;20233;-69
2024/01/14 05:54:31;;;;;;;11.80;4.77;;;-0.50;99.90;;;;;;5075144;28;20219;-69
2024/01/14 05:56:57;;;;;;;16.00;4.80;;;-0.50;99.90;;;;;;5074513;28;20218;-70
2024/01/14 05:59:23;;;;;;;11.63;4.43;;;-0.50;99.90;;;;;;5096270;28;20457;-68
2024/01/14 06:01:49;;;;;;;11.30;4.60;;;-0.50;99.90;;;;;;5083997;28;20843;-70
2024/01/14 06:04:15;;;;;;;7.67;3.27;;;-0.50;99.90;;;;;;5084166;28;20218;-69
2024/01/14 06:06:40;;;;;;;14.53;4.37;;;-0.50;99.90;;;;;;5068315;28;20211;-69
2024/01/14 06:09:06;;;;;;;10.13;4.57;;;-0.50;99.90;;;;;;5077367;28;20219;-68
2024/01/14 06:11:32;;;;;;;12.83;5.43;;;-0.50;99.90;;;;;;5082878;28;20223;-70
2024/01/14 06:13:57;;;;;;;9.90;4.80;;;-0.50;99.90;;;;;;5085343;28;20287;-69
2024/01/14 06:16:25;;;;;;;8.60;4.30;;;-0.60;99.90;;;;;;5077460;28;20656;-69
2024/01/14 06:18:50;;;;;;;8.90;4.33;;;-0.60;99.90;;;;;;5064042;28;20216;-69
2024/01/14 06:21:16;;;;;;;6.00;2.53;;;-0.50;99.90;;;;;;5082808;28;20471;-69
2024/01/14 06:23:42;;;;;;;7.03;3.50;;;-0.40;99.90;;;;;;5093066;28;20215;-69
2024/01/14 06:26:14;;;;;;;13.97;5.20;;;-0.30;99.90;;;;;;5078959;28;20218;-69
2024/01/14 06:28:39;;;;;;;11.60;3.80;;;-0.40;99.90;;;;;;5082764;28;20230;-71
2024/01/14 06:31:07;;;;;;;6.60;4.10;;;-0.40;99.90;;;;;;5057777;28;20474;-69
2024/01/14 06:33:33;;;;;;;7.47;3.67;;;-0.40;99.90;;;;;;5086402;28;20363;-70
2024/01/14 06:35:58;;;;;;;8.67;5.40;;;-0.20;99.90;;;;;;5081096;28;20449;-69
2024/01/14 06:38:24;;;;;;;9.50;4.40;;;-0.20;99.90;;;;;;5080651;28;20256;-68
2024/01/14 06:40:50;;;;;;;10.47;4.00;;;-0.20;99.90;;;;;;5093399;28;20226;-68
2024/01/14 06:43:15;;;;;;;14.93;5.00;;;-0.20;99.90;;;;;;5066448;28;20230;-67
2024/01/14 06:45:41;;;;;;;9.43;3.80;;;0.00;99.90;;;;;;5083792;28;20227;-69
2024/01/14 06:48:07;;;;;;;8.53;4.00;;;0.10;99.90;;;;;;5082070;28;20250;-69
2024/01/14 06:50:32;;;;;;;11.43;4.30;;;0.10;99.90;;;;;;5085090;28;20230;-70
2024/01/14 06:52:58;;;;;;;9.43;3.50;;;-0.20;99.90;;;;;;5079228;28;20207;-69
2024/01/14 06:55:24;;;;;;;9.83;4.50;;;-0.20;99.90;;;;;;5081621;28;20239;-69
2024/01/14 06:57:50;;;;;;;9.73;4.10;;;0.00;99.90;;;;;;5087804;28;20227;-68
2024/01/14 07:00:15;;;;;;;7.00;4.03;;;0.10;99.90;;;;;;5080299;28;20460;-68
2024/01/14 07:02:41;;;;;;;12.13;5.50;;;0.20;99.90;;;;;;5084431;28;20282;-69
2024/01/14 07:05:08;;;;;;;10.30;4.70;;;0.10;99.90;;;;;;5073347;28;20307;-69
2024/01/14 07:07:34;;;;;;;8.67;5.37;;;0.00;99.90;;;;;;5090682;28;20477;-69
2024/01/14 07:10:00;;;;;;;9.10;4.20;;;0.00;99.90;;;;;;5085072;28;20472;-69
2024/01/14 07:12:25;;;;;;;11.93;4.97;;;-0.10;99.90;;;;;;5080775;28;20242;-69
2024/01/14 07:14:51;;;;;;;10.83;4.17;;;0.00;99.90;;;;;;5084349;28;20245;-68
2024/01/14 07:17:16;;;;;;;9.90;5.13;;;0.10;99.90;;;;;;5078989;28;20264;-68
2024/01/14 07:19:42;;;;;;;10.47;4.27;;;0.20;99.90;;;;;;5079037;28;20219;-68
2024/01/14 07:22:08;;;;;;;11.77;4.10;;;0.20;99.90;;;;;;5067840;28;20342;-69
2024/01/14 07:24:33;;;;;;;7.37;4.17;;;0.30;99.90;;;;;;5073415;28;20226;-69
2024/01/14 07:27:01;;;;;;;17.80;4.87;;;0.20;99.90;;;;;;5078672;28;20227;-68
2024/01/14 07:29:28;;;;;;;7.03;3.93;;;0.10;99.90;;;;;;5067830;28;20233;-68
2024/01/14 07:31:53;;;;;;;14.10;5.47;;;0.20;99.90;;;;;;5070052;28;20458;-68
2024/01/14 07:34:19;;;;;;;10.97;4.50;;;0.20;99.90;;;;;;5067609;28;20495;-68
2024/01/14 07:36:45;;;;;;;8.00;3.63;;;0.10;99.90;;;;;;5068315;28;20277;-70
2024/01/14 07:39:10;;;;;;;7.67;4.10;;;0.20;99.90;;;;;;5078552;28;20235;-69
2024/01/14 07:41:36;;;;;;;13.00;4.57;;;0.20;99.90;;;;;;5097951;28;20233;-69
2024/01/14 07:44:02;;;;;;;8.13;3.77;;;0.20;99.90;;;;;;5083539;28;20207;-70
2024/01/14 07:46:28;;;;;;;12.90;4.90;;;0.20;99.90;;;;;;5080673;28;20446;-70
2024/01/14 07:48:53;;;;;;;10.00;5.47;;;0.10;99.90;;;;;;5088712;28;20716;-69
2024/01/14 07:51:19;;;;;;;10.43;5.10;;;0.10;99.90;;;;;;5087205;28;20223;-68
2024/01/14 07:53:45;;;;;;;10.00;4.37;;;0.20;99.90;;;;;;5091327;28;20257;-70
2024/01/14 07:56:10;;;;;;;9.23;5.20;;;0.20;99.90;;;;;;5089097;28;20235;-70
2024/01/14 07:58:36;;;;;;;12.60;6.60;;;0.30;99.90;;;;;;5086750;28;20238;-70
2024/01/14 08:01:02;;;;;;;14.27;6.10;;;0.20;99.90;;;;;;5102210;28;20226;-70
2024/01/14 08:03:27;;;;;;;11.10;4.97;;;0.20;99.90;;;;;;5085599;28;20216;-70
2024/01/14 08:05:53;;;;;;;8.80;4.37;;;0.30;99.90;;;;;;5085561;28;20211;-70
2024/01/14 08:08:19;;;;;;;9.90;6.00;;;0.40;99.90;;;;;;5084563;28;20211;-70
2024/01/14 08:10:44;;;;;;;13.20;7.43;;;0.40;99.90;;;;;;5097539;28;20228;-69
2024/01/14 08:13:10;;;;;;;13.87;6.23;;;0.40;99.90;;;;;;5076323;28;20224;-69
2024/01/14 08:15:36;;;;;;;10.80;5.87;;;0.30;99.90;;;;;;5095488;28;20214;-70
2024/01/14 08:18:01;;;;;;;10.10;4.93;;;0.40;99.90;;;;;;5075538;28;20216;-69
2024/01/14 08:20:27;;;;;;;10.87;5.77;;;0.40;99.90;;;;;;5101713;28;20206;-70
2024/01/14 08:22:56;;;;;;;9.70;5.03;;;0.30;99.90;;;;;;5090035;28;20238;-69
2024/01/14 08:25:24;;;;;;;7.60;4.00;;;0.30;99.90;;;;;;5086675;28;20240;-70
2024/01/14 08:27:52;;;;;;;5.93;4.33;;;0.30;99.90;;;;;;5087572;28;20526;-69
2024/01/14 08:30:18;;;;;;;7.73;4.67;;;0.30;99.90;;;;;;5084862;28;20530;-70
2024/01/14 08:32:43;;;;;;;12.30;5.30;;;0.30;99.90;;;;;;5088277;28;20485;-70
2024/01/14 08:35:11;;;;;;;10.00;4.83;;;0.20;99.90;;;;;;5078311;28;20567;-69
2024/01/14 08:37:37;;;;;;;14.30;7.17;;;0.20;99.90;;;;;;5083440;28;20225;-69
2024/01/14 08:40:03;;;;;;;13.20;5.67;;;0.30;99.90;;;;;;5086752;28;20461;-69
2024/01/14 08:42:29;;;;;;;13.03;5.03;;;0.10;99.90;;;;;;5080104;28;20497;-69
2024/01/14 08:44:54;;;;;;;9.90;4.20;;;-0.10;99.90;;;;;;5084685;28;20540;-69
2024/01/14 08:47:20;;;;;;;9.37;4.97;;;-0.20;99.90;;;;;;5078235;28;20215;-70
2024/01/14 08:49:46;;;;;;;7.33;4.23;;;-0.10;99.90;;;;;;5083998;28;20223;-68
2024/01/14 08:52:11;;;;;;;9.87;3.27;;;0.00;99.90;;;;;;5078412;28;20245;-70
2024/01/14 08:54:37;;;;;;;7.77;3.27;;;0.00;99.90;;;;;;5077267;28;20223;-70
2024/01/14 08:57:03;;;;;;;8.73;3.87;;;0.00;99.90;;;;;;5085576;28;20297;-70
2024/01/14 08:59:29;;;;;;;8.83;4.00;;;-0.10;99.90;;;;;;5078684;28;20540;-70
2024/01/14 09:01:55;;;;;;;10.07;3.77;;;-0.20;99.90;;;;;;5077020;28;20289;-70
2024/01/14 09:04:20;;;;;;;7.90;3.90;;;-0.10;99.90;;;;;;5076218;28;20215;-67
2024/01/14 09:06:46;;;;;;;12.23;4.80;;;0.00;99.90;;;;;;5081831;28;20211;-69
2024/01/14 09:09:12;;;;;;;10.50;4.73;;;-0.20;99.90;;;;;;5072683;28;20629;-69
2024/01/14 09:11:38;;;;;;;11.93;4.90;;;-0.10;99.90;;;;;;5083052;28;20215;-70
2024/01/14 09:14:04;;;;;;;9.03;4.10;;;-0.10;99.90;;;;;;5081356;28;20211;-70
2024/01/14 09:16:30;;;;;;;8.80;3.50;;;-0.10;99.90;;;;;;5079457;28;20452;-70
2024/01/14 09:18:56;;;;;;;11.70;3.23;;;0.00;99.90;;;;;;5081719;28;20509;-69
2024/01/14 09:21:22;;;;;;;9.53;4.20;;;0.00;99.90;;;;;;5076248;28;20457;-69
2024/01/14 09:23:47;;;;;;;7.53;4.43;;;0.10;99.90;;;;;;5077019;28;20216;-70
2024/01/14 09:26:13;;;;;;;9.40;4.77;;;-0.10;99.90;;;;;;5076141;28;20211;-68
2024/01/14 09:28:39;;;;;;;13.10;5.20;;;-0.10;99.90;;;;;;5074034;28;20215;-69
2024/01/14 09:31:05;;;;;;;8.13;4.30;;;0.00;99.90;;;;;;5080765;28;20228;-69
2024/01/14 09:33:31;;;;;;;11.97;4.63;;;0.20;99.90;;;;;;5075742;28;20215;-70
2024/01/14 09:35:57;;;;;;;12.70;4.43;;;0.20;99.90;;;;;;5078589;28;20465;-71
2024/01/14 09:38:23;;;;;;;12.50;5.30;;;0.20;99.90;;;;;;5075533;28;20476;-69
2024/01/14 09:41:09;;;;;;;10.97;4.00;;;0.30;99.90;;;;;;5079263;28;20219;-69
2024/01/14 09:43:40;;;;;;;12.23;5.00;;;0.00;99.90;;;;;;5060997;28;20220;-69
2024/01/14 09:46:06;;;;;;;15.07;4.57;;;0.10;99.90;;;;;;5077001;28;20599;-71
2024/01/14 09:48:33;;;;;;;9.57;3.87;;;0.00;99.90;;;;;;5076308;28;20591;-69
2024/01/14 09:51:03;;;;;;;8.23;3.30;;;0.00;99.90;;;;;;5075237;28;21005;-70
2024/01/14 09:53:29;;;;;;;16.70;5.07;;;0.10;99.90;;;;;;5075869;27;20492;-70
2024/01/14 09:55:56;;;;;;;8.80;3.70;;;0.30;99.90;;;;;;5084031;28;20525;-70
2024/01/14 09:58:23;;;;;;;13.83;5.07;;;0.20;99.90;;;;;;5075913;28;20356;-70
2024/01/14 10:00:50;;;;;;;16.77;5.47;;;0.00;99.90;;;;;;5080320;28;20465;-70
2024/01/14 10:03:15;;;;;;;8.73;4.40;;;-0.10;99.90;;;;;;5072504;28;20473;-69
2024/01/14 10:05:43;;;;;;;17.43;6.23;;;0.00;99.90;;;;;;5097297;28;20464;-68
2024/01/14 10:08:09;;;;;;;17.13;7.67;;;0.10;99.90;;;;;;5074893;28;20234;-71
2024/01/14 10:10:34;;;;;;;9.20;5.20;;;0.10;99.90;;;;;;5077515;28;20553;-70
2024/01/14 10:13:03;;;;;;;9.23;3.73;;;-0.10;99.90;;;;;;5074425;28;20357;-70
2024/01/14 10:15:31;;;;;;;11.30;4.10;;;0.00;99.90;;;;;;5075971;28;20214;-69
2024/01/14 10:17:56;;;;;;;13.40;5.07;;;0.20;99.90;;;;;;5080804;28;20472;-70
2024/01/14 10:20:22;;;;;;;11.53;5.87;;;0.10;99.90;;;;;;5077136;27;20465;-70
2024/01/14 10:22:48;;;;;;;8.87;4.20;;;0.20;99.90;;;;;;5077614;28;20284;-70
2024/01/14 10:25:14;;;;;;;15.47;5.10;;;0.20;99.90;;;;;;5073104;27;20293;-69
2024/01/14 10:27:40;;;;;;;13.63;5.97;;;0.10;99.90;;;;;;5074994;28;20525;-70
2024/01/14 10:30:12;;;;;;;18.23;6.00;;;0.00;99.90;;;;;;5076879;28;20288;-69
2024/01/14 10:32:38;;;;;;;14.43;5.07;;;-0.10;99.90;;;;;;5078758;28;20219;-70
2024/01/14 10:35:10;;;;;;;13.50;6.40;;;-0.10;99.90;;;;;;5073484;28;20460;-70
2024/01/14 10:37:35;;;;;;;8.20;4.50;;;0.10;99.90;;;;;;5072508;28;20207;-71
2024/01/14 10:40:04;;;;;;;13.90;6.10;;;0.10;99.90;;;;;;5074223;28;20576;-70
2024/01/14 10:42:30;;;;;;;10.53;5.77;;;0.20;99.90;;;;;;5076341;28;20328;-69
2024/01/14 10:44:56;;;;;;;14.53;7.17;;;0.10;99.90;;;;;;5079880;28;20547;-70
2024/01/14 10:47:23;;;;;;;20.63;10.03;;;0.10;99.90;;;;;;5075616;28;20222;-69
2024/01/14 10:49:50;;;;;;;25.93;12.27;;;0.20;99.90;;;;;;5074300;28;20231;-71
2024/01/14 10:52:17;;;;;;;21.63;10.83;;;0.30;99.90;;;;;;5076339;28;20629;-70
2024/01/14 10:54:50;;;;;;;13.07;6.70;;;0.30;99.90;;;;;;5086989;28;20460;-69
2024/01/14 10:57:35;;;;;;;14.37;6.70;;;0.30;99.90;;;;;;5086489;28;20469;-70
2024/01/14 11:00:10;;;;;;;18.93;6.60;;;0.30;99.90;;;;;;5084491;28;20515;-71
2024/01/14 11:02:37;;;;;;;15.50;5.63;;;0.40;99.90;;;;;;5092368;27;20465;-70
2024/01/14 11:05:04;;;;;;;13.03;5.70;;;0.50;99.90;;;;;;5089756;28;20452;-71
2024/01/14 11:07:33;;;;;;;16.50;5.67;;;0.30;99.90;;;;;;5081858;28;20521;-71
2024/01/14 11:09:59;;;;;;;11.47;5.20;;;0.30;99.90;;;;;;5089209;28;20465;-69
2024/01/14 11:12:49;;;;;;;17.80;5.50;;;0.40;99.90;;;;;;5084874;28;20548;-70
2024/01/14 11:15:32;;;;;;;21.60;10.10;;;0.50;99.90;;;;;;5081527;28;20472;-69
2024/01/14 11:18:09;;;;;;;36.20;16.80;;;0.30;99.90;;;;;;5081834;28;20457;-70
2024/01/14 11:20:38;;;;;;;39.53;19.40;;;0.20;99.90;;;;;;5082849;28;20513;-71
2024/01/14 11:23:05;;;;;;;29.00;12.47;;;0.30;99.90;;;;;;5084705;28;20468;-69
2024/01/14 11:25:35;;;;;;;16.03;7.30;;;0.50;99.90;;;;;;5085218;28;20456;-70
2024/01/14 11:28:04;;;;;;;18.33;6.90;;;0.50;99.90;;;;;;5079489;28;20473;-70
2024/01/14 11:30:49;;;;;;;15.23;5.57;;;0.40;99.90;;;;;;5083710;28;20457;-69
2024/01/14 11:33:40;;;;;;;13.13;4.67;;;0.50;99.90;;;;;;5083376;28;20465;-69
2024/01/14 11:36:07;;;;;;;11.30;5.10;;;0.50;99.90;;;;;;5084593;28;20493;-70
2024/01/14 11:38:35;;;;;;;11.43;4.93;;;0.50;99.90;;;;;;5083807;28;20471;-70
2024/01/14 11:41:35;;;;;;;13.10;5.07;;;0.50;99.90;;;;;;5090861;27;20550;-70
2024/01/14 11:44:09;;;;;;;19.80;7.00;;;0.50;99.90;;;;;;5084708;28;20448;-70
2024/01/14 11:46:47;;;;;;;19.23;6.63;;;0.50;99.90;;;;;;5084426;28;20495;-69
2024/01/14 11:49:18;;;;;;;15.53;6.50;;;0.50;99.90;;;;;;5086288;28;20544;-71
2024/01/14 11:51:57;;;;;;;11.07;5.70;;;0.50;99.90;;;;;;5082500;28;20458;-70
2024/01/14 11:54:24;;;;;;;20.07;7.47;;;0.60;99.90;;;;;;5086243;28;20464;-70
2024/01/14 11:56:51;;;;;;;15.20;6.93;;;0.60;99.90;;;;;;5090367;28;20970;-70
2024/01/14 11:59:17;;;;;;;15.07;5.50;;;0.60;99.90;;;;;;5087870;28;20619;-70
2024/01/14 12:01:43;;;;;;;17.30;6.80;;;0.60;99.90;;;;;;5090100;28;20462;-69
2024/01/14 12:04:09;;;;;;;20.30;7.20;;;0.60;99.90;;;;;;5084195;28;20449;-69
2024/01/14 12:06:38;;;;;;;17.20;6.70;;;0.60;99.90;;;;;;5070088;28;20630;-70
2024/01/14 12:09:04;;;;;;;14.97;6.53;;;0.60;99.90;;;;;;5066425;28;20550;-69
2024/01/14 12:11:30;;;;;;;21.57;6.60;;;0.60;99.90;;;;;;5078571;28;20525;-69
2024/01/14 12:13:56;;;;;;;19.17;7.87;;;0.50;99.90;;;;;;5079544;28;20496;-70
2024/01/14 12:16:21;;;;;;;10.50;5.80;;;0.40;99.90;;;;;;5082606;28;20242;-71
2024/01/14 12:18:47;;;;;;;15.97;6.47;;;0.50;99.90;;;;;;5066154;28;20207;-69
2024/01/14 12:21:16;;;;;;;21.83;5.97;;;0.60;99.90;;;;;;5081745;28;20230;-70
2024/01/14 12:23:41;;;;;;;20.53;7.37;;;0.50;99.90;;;;;;5080506;28;20211;-70
2024/01/14 12:26:08;;;;;;;23.33;8.93;;;0.50;99.90;;;;;;5083197;27;20522;-71
2024/01/14 12:28:34;;;;;;;15.53;7.60;;;0.60;99.90;;;;;;5084027;27;20223;-71
2024/01/14 12:30:59;;;;;;;14.27;6.50;;;0.50;99.90;;;;;;5084168;28;20473;-69
2024/01/14 12:33:25;;;;;;;15.30;6.43;;;0.50;99.90;;;;;;5077431;28;20218;-70
2024/01/14 12:35:51;;;;;;;22.00;8.50;;;0.60;99.90;;;;;;5068762;28;20701;-69
2024/01/14 12:38:18;;;;;;;16.13;7.20;;;0.50;99.90;;;;;;5058921;28;20681;-70
2024/01/14 12:40:43;;;;;;;13.40;6.77;;;0.50;99.90;;;;;;5091545;27;20465;-70
2024/01/14 12:43:09;;;;;;;15.53;7.30;;;0.60;99.90;;;;;;5066456;27;20458;-70